Gulf Reliance — WDD2703 — position and weather

sailwx.info

Track history (hours):
 
Tides and Currents Weather Stations Pressure Air Temp Water Temp Dewpoint Dewpoint Depression Visibility Wind Speed Wind Dir Waves Ship Positions

Gulf Reliance

Owner: Intrepid Ship Management, Jacksonville, FL. More information available from US FCC via Universal Licensing System and Coast Guard Vessel Documentation Center.

Last reported at 2018-Feb-18 10:02 UTC. Time now 2018-Feb-18 20:39 UTC.
Position N 37°26' W 123°13'.

Type: Towing. MMSI: 303668000.

Date/timePositionNaut miles runAvg speedWind from/ knotsBaromVisibWave heightAir tempDewpointWater temp
2018-Feb-18 10:02N 37°26' W 123°13'010.3
2018-Feb-18 10:00N 37°27' W 123°12'510.9
2018-Feb-18 09:30N 37°31' W 123°08'510.8
2018-Feb-18 09:00N 37°35' W 123°03'5 9.7
2018-Feb-18 08:30N 37°37' W 122°58'5 9.8
2018-Feb-18 08:00N 37°40' W 122°53'5 9.8
2018-Feb-18 07:30N 37°43' W 122°48'5 9.9
2018-Feb-18 07:00N 37°45' W 122°42'4 8.6
2018-Feb-18 06:30N 37°46' W 122°37'5 9.3
2018-Feb-18 06:00N 37°48' W 122°32'5 9.2
2018-Feb-18 05:30N 37°50' W 122°26'4 8.8
2018-Feb-18 05:00N 37°48' W 122°22'2 3.0
2018-Feb-18 04:29N 37°46' W 122°21'0 0.4
2018-Feb-18 03:59N 37°46' W 122°21'0 0.2
2018-Feb-18 03:29N 37°46' W 122°21'0 0.1
2018-Feb-18 02:59N 37°46' W 122°21'0 0.0
2018-Feb-18 02:29N 37°46' W 122°21'0 0.0
2018-Feb-18 01:59N 37°46' W 122°21'0 0.0
2018-Feb-18 01:29N 37°46' W 122°21'0 0.0
2018-Feb-18 00:59N 37°46' W 122°21'0 0.0
2018-Feb-18 00:29N 37°46' W 122°21'0 0.0
2018-Feb-17 23:59N 37°46' W 122°21'0 0.0
2018-Feb-17 23:30N 37°46' W 122°21'0 0.0
2018-Feb-17 23:00N 37°46' W 122°21'0 0.2
2018-Feb-17 22:30N 37°46' W 122°21'3 6.8
2018-Feb-17 22:00N 37°49' W 122°23'510.1
2018-Feb-17 21:30N 37°54' W 122°26'5 9.6
2018-Feb-17 21:00N 37°58' W 122°26'5 9.2
2018-Feb-17 20:30N 38°02' W 122°22'4 8.9
2018-Feb-17 20:00N 38°04' W 122°17'4 7.8
2018-Feb-17 19:30N 38°03' W 122°12'4 6.9
2018-Feb-17 19:00N 38°02' W 122°08'0 0.3
2018-Feb-17 18:30N 38°02' W 122°08'0 0.0
2018-Feb-17 17:56N 38°02' W 122°08'0 0.0
2018-Feb-17 17:26N 38°02' W 122°08'0 0.0
2018-Feb-17 16:56N 38°02' W 122°08'0 0.0
2018-Feb-17 16:20N 38°02' W 122°08'0 0.0
2018-Feb-17 15:50N 38°02' W 122°08'0 0.0
2018-Feb-17 15:26N 38°02' W 122°08'0 0.0
2018-Feb-17 14:56N 38°02' W 122°08'0 0.0
2018-Feb-17 14:26N 38°02' W 122°08'0 0.0
2018-Feb-17 13:56N 38°02' W 122°08'0 0.0
2018-Feb-17 13:26N 38°02' W 122°08'0 0.0
2018-Feb-17 12:50N 38°02' W 122°08'0 0.0
2018-Feb-17 12:26N 38°02' W 122°08'0 0.0
2018-Feb-17 11:56N 38°02' W 122°08'0 0.0
2018-Feb-17 11:26N 38°02' W 122°08'0 0.0
2018-Feb-17 10:56N 38°02' W 122°08'0 0.0
2018-Feb-17 10:26N 38°02' W 122°08'0 0.0
2018-Feb-17 09:56N 38°02' W 122°08'0 0.0
2018-Feb-17 09:26N 38°02' W 122°08'0 0.0
2018-Feb-17 08:56N 38°02' W 122°08'0 0.0
2018-Feb-17 08:26N 38°02' W 122°08'0 0.0
2018-Feb-17 07:56N 38°02' W 122°08'0 0.0
2018-Feb-17 07:26N 38°02' W 122°08'0 0.0
2018-Feb-17 06:56N 38°02' W 122°08'0 0.0
2018-Feb-17 06:26N 38°02' W 122°08'0 0.0
2018-Feb-17 05:50N 38°02' W 122°08'0 0.0
2018-Feb-17 05:20N 38°02' W 122°08'0 0.0
2018-Feb-17 04:56N 38°02' W 122°08'0 0.0
2018-Feb-17 04:26N 38°02' W 122°08'0 0.0
2018-Feb-17 03:56N 38°02' W 122°08'0 0.0
2018-Feb-17 03:26N 38°02' W 122°08'0 0.0
2018-Feb-17 02:56N 38°02' W 122°08'0 0.0
2018-Feb-17 02:26N 38°02' W 122°08'0 0.0
2018-Feb-17 01:56N 38°02' W 122°08'0 0.0
2018-Feb-17 01:26N 38°02' W 122°08'0 0.0
2018-Feb-17 00:56N 38°02' W 122°08'0 0.0
2018-Feb-17 00:26N 38°02' W 122°08'0 0.0
2018-Feb-16 23:56N 38°02' W 122°08'0 0.0
2018-Feb-16 23:26N 38°02' W 122°08'0 0.0
2018-Feb-16 22:56N 38°02' W 122°08'0 0.0
2018-Feb-16 21:38N 38°02' W 122°08'0 0.0
2018-Feb-16 20:38N 38°02' W 122°08'0 0.0
2018-Feb-16 20:26N 38°02' W 122°08'0 0.0
2018-Feb-16 19:56N 38°02' W 122°08'0 0.0
2018-Feb-16 19:20N 38°02' W 122°08'0 0.0
2018-Feb-16 18:56N 38°02' W 122°08'0 0.0
2018-Feb-16 18:26N 38°02' W 122°08'0 0.2
2018-Feb-16 18:00N 38°02' W 122°08'2 4.0
2018-Feb-16 17:30N 38°02' W 122°10'5 9.8
2018-Feb-16 17:00N 38°04' W 122°16'510.6
2018-Feb-16 16:30N 38°02' W 122°23'611.2
2018-Feb-16 16:00N 37°57' W 122°27'510.4
2018-Feb-16 15:30N 37°52' W 122°25'4 7.7
2018-Feb-16 15:00N 37°49' W 122°28'510.4
2018-Feb-16 14:30N 37°47' W 122°34'510.4
2018-Feb-16 14:00N 37°45' W 122°40'5 9.7
2018-Feb-16 13:30N 37°42' W 122°45'5 9.5
2018-Feb-16 13:00N 37°39' W 122°50'5 9.6
2018-Feb-16 12:30N 37°36' W 122°55'5 9.2
2018-Feb-16 12:00N 37°34' W 122°59'4 8.7
2018-Feb-16 11:30N 37°30' W 123°03'5 9.6
2018-Feb-16 11:00N 37°25' W 123°02'5 9.7
2018-Feb-16 10:30N 37°21' W 123°02'5 9.9
2018-Feb-16 10:00N 37°16' W 123°02'5 9.8
2018-Feb-16 09:30N 37°11' W 123°02'5 9.7
2018-Feb-16 09:00N 37°06' W 123°02'5 9.5
2018-Feb-16 08:30N 37°01' W 123°02'5 9.5
2018-Feb-16 08:00N 36°56' W 123°02'5 9.6
2018-Feb-16 07:30N 36°52' W 123°02'6 9.7
2018-Feb-16 06:52N 36°45' W 123°02'4 9.7
2018-Feb-16 06:28N 36°41' W 123°02'4 9.5
2018-Feb-16 06:00N 36°37' W 123°02'5 9.5
2018-Feb-16 05:30N 36°32' W 123°01'5 9.4
2018-Feb-16 05:00N 36°28' W 123°01'5 9.1
2018-Feb-16 04:30N 36°23' W 123°01'3 7.0
2018-Feb-16 04:00N 36°20' W 123°01'4 8.0
2018-Feb-16 03:27N 36°15' W 123°01'4 9.7
2018-Feb-16 03:00N 36°11' W 123°01'5 9.8
2018-Feb-16 02:30N 36°06' W 123°00'5 9.8
2018-Feb-16 02:00N 36°01' W 123°00'5 9.9
2018-Feb-16 01:30N 35°56' W 123°00'89 9.5
2018-Feb-15 16:08N 34°38' W 122°07'26 9.5
2018-Feb-15 13:23N 34°18' W 121°46'4 9.6
2018-Feb-15 13:00N 34°15' W 121°44'5 9.6
2018-Feb-15 12:30N 34°12' W 121°40'5 9.6
2018-Feb-15 12:00N 34°08' W 121°36'5 9.4
2018-Feb-15 11:30N 34°05' W 121°32'5 9.4
2018-Feb-15 10:59N 34°03' W 121°27'4 9.3
2018-Feb-15 10:30N 34°01' W 121°22'5 9.4
2018-Feb-15 09:58N 33°59' W 121°16'4 9.3
2018-Feb-15 09:30N 33°58' W 121°11'5 9.6
2018-Feb-15 09:00N 33°56' W 121°06'5 9.8
2018-Feb-15 08:30N 33°54' W 121°01'510.1
2018-Feb-15 07:58N 33°52' W 120°54'510.2
2018-Feb-15 07:30N 33°50' W 120°49'510.3
2018-Feb-15 07:00N 33°48' W 120°43'510.3
2018-Feb-15 06:30N 33°46' W 120°38'610.3
2018-Feb-15 05:58N 33°44' W 120°31'510.1
2018-Feb-15 05:30N 33°42' W 120°26'510.0
2018-Feb-15 05:00N 33°41' W 120°20'510.1
2018-Feb-15 04:30N 33°41' W 120°14'510.3
2018-Feb-15 04:00N 33°41' W 120°08'510.2
2018-Feb-15 03:30N 33°41' W 120°02'510.5
2018-Feb-15 02:59N 33°41' W 119°55'510.3
2018-Feb-15 02:30N 33°41' W 119°49'510.3
2018-Feb-15 01:59N 33°41' W 119°43'510.3
2018-Feb-15 01:30N 33°41' W 119°37'610.3
2018-Feb-15 00:58N 33°41' W 119°30'510.6
2018-Feb-15 00:30N 33°41' W 119°25'610.7
2018-Feb-14 23:56N 33°41' W 119°17'611.1
2018-Feb-14 23:24N 33°41' W 119°10'411.3
2018-Feb-14 23:00N 33°41' W 119°05'611.1
2018-Feb-14 22:30N 33°41' W 118°58'611.0
2018-Feb-14 22:00N 33°40' W 118°51'611.1
2018-Feb-14 21:30N 33°40' W 118°45'611.2
2018-Feb-14 20:59N 33°39' W 118°38'511.3
2018-Feb-14 20:30N 33°38' W 118°31'611.3
2018-Feb-14 19:59N 33°38' W 118°24'511.3
2018-Feb-14 19:30N 33°38' W 118°18'5 9.4
2018-Feb-14 19:00N 33°42' W 118°15'3 5.5
2018-Feb-14 18:30N 33°45' W 118°16'0 0.8
2018-Feb-14 17:59N 33°45' W 118°16'0 0.0
2018-Feb-14 17:29N 33°45' W 118°16'0 0.0
2018-Feb-14 16:56N 33°45' W 118°16'0 0.0
2018-Feb-14 16:26N 33°45' W 118°16'0 0.0
2018-Feb-14 15:59N 33°45' W 118°16'0 0.0
2018-Feb-14 15:29N 33°45' W 118°16'0 0.0
2018-Feb-14 14:59N 33°45' W 118°16'0 0.0
2018-Feb-14 14:29N 33°45' W 118°16'0 0.0
2018-Feb-14 13:59N 33°45' W 118°16'0 0.0
2018-Feb-14 13:29N 33°45' W 118°16'0 0.0
2018-Feb-14 12:59N 33°45' W 118°16'0 0.0
2018-Feb-14 12:29N 33°45' W 118°16'0 0.0
2018-Feb-14 11:59N 33°45' W 118°16'0 0.0
2018-Feb-14 11:29N 33°45' W 118°16'0 0.0
2018-Feb-14 10:59N 33°45' W 118°16'0 0.0
2018-Feb-14 10:29N 33°45' W 118°16'0 0.0
2018-Feb-14 09:59N 33°45' W 118°16'0 0.0
2018-Feb-14 09:29N 33°45' W 118°16'0 0.0
2018-Feb-14 08:58N 33°45' W 118°16'0 0.0
2018-Feb-14 08:28N 33°45' W 118°16'0 0.0
2018-Feb-14 07:59N 33°45' W 118°16'0 0.0
2018-Feb-14 07:26N 33°45' W 118°16'0 0.0
2018-Feb-14 06:59N 33°45' W 118°16'0 0.0
2018-Feb-14 06:28N 33°45' W 118°16'0 0.0
2018-Feb-14 05:59N 33°45' W 118°16'0 0.0
2018-Feb-14 05:29N 33°45' W 118°16'0 0.0
2018-Feb-14 04:59N 33°45' W 118°16'0 0.0
2018-Feb-14 04:29N 33°45' W 118°16'0 0.0
2018-Feb-14 03:59N 33°45' W 118°16'0 0.0
2018-Feb-14 03:28N 33°45' W 118°16'0 0.0
2018-Feb-14 02:56N 33°45' W 118°16'0 0.0
2018-Feb-14 02:29N 33°45' W 118°16'0 0.0
2018-Feb-14 01:59N 33°45' W 118°16'0 0.0
2018-Feb-14 01:29N 33°45' W 118°16'0 0.0
2018-Feb-14 00:59N 33°45' W 118°16'0 0.0
2018-Feb-14 00:29N 33°45' W 118°16'0 0.0
2018-Feb-13 23:55N 33°45' W 118°16'0 0.0
2018-Feb-13 23:29N 33°45' W 118°16'0 0.0
2018-Feb-13 22:59N 33°45' W 118°16'0 0.0
2018-Feb-13 22:29N 33°45' W 118°16'0 0.0
2018-Feb-13 21:59N 33°45' W 118°16'0 0.0
2018-Feb-13 21:29N 33°45' W 118°16'0 0.0
2018-Feb-13 20:58N 33°45' W 118°16'0 0.0
2018-Feb-13 20:29N 33°45' W 118°16'0 0.0
2018-Feb-13 19:59N 33°45' W 118°16'0 0.0
2018-Feb-13 19:28N 33°45' W 118°16'0 0.0
2018-Feb-13 18:58N 33°45' W 118°16'0 0.0
2018-Feb-13 18:28N 33°45' W 118°16'0 0.0
2018-Feb-13 17:59N 33°45' W 118°16'0 0.0
2018-Feb-13 17:29N 33°45' W 118°16'0 0.0
2018-Feb-13 16:58N 33°45' W 118°16'0 0.0
2018-Feb-13 16:28N 33°45' W 118°16'0 0.0
2018-Feb-13 15:58N 33°45' W 118°16'0 0.0
2018-Feb-13 15:28N 33°45' W 118°16'0 0.0
2018-Feb-13 14:59N 33°45' W 118°16'0 0.0
2018-Feb-13 14:29N 33°45' W 118°16'0 0.0
2018-Feb-13 13:58N 33°45' W 118°16'0 0.0
2018-Feb-13 13:29N 33°45' W 118°16'0 0.0
2018-Feb-13 12:58N 33°45' W 118°16'0 0.0
2018-Feb-13 12:28N 33°45' W 118°16'0 0.2
2018-Feb-13 12:00N 33°45' W 118°16'2 4.5
2018-Feb-13 11:30N 33°43' W 118°16'3 5.3
2018-Feb-13 10:55N 33°41' W 118°13'0 0.1
2018-Feb-13 10:28N 33°41' W 118°13'0 0.0
2018-Feb-13 09:58N 33°41' W 118°13'0 0.0
2018-Feb-13 09:25N 33°41' W 118°13'0 0.0
2018-Feb-13 07:16N 33°41' W 118°13'0 0.1
2018-Feb-13 06:55N 33°41' W 118°13'0 0.0
2018-Feb-13 06:25N 33°41' W 118°13'0 0.1
2018-Feb-13 05:58N 33°41' W 118°13'0 0.0
2018-Feb-13 05:28N 33°41' W 118°13'0 0.3
2018-Feb-13 04:59N 33°41' W 118°13'16 8.9
2018-Feb-13 03:09N 33°36' W 118°31'211.6
2018-Feb-13 03:00N 33°36' W 118°33'611.5
2018-Feb-13 02:30N 33°36' W 118°40'611.5
2018-Feb-13 02:00N 33°36' W 118°47'611.5
2018-Feb-13 01:30N 33°36' W 118°54'611.5
2018-Feb-13 01:00N 33°37' W 119°01'711.2
2018-Feb-13 00:25N 33°37' W 119°09'511.4
2018-Feb-13 00:00N 33°37' W 119°14'511.0
2018-Feb-12 23:30N 33°38' W 119°21'611.3
2018-Feb-12 22:59N 33°38' W 119°28'611.2
2018-Feb-12 22:30N 33°38' W 119°35'611.3
2018-Feb-12 22:00N 33°38' W 119°41'611.4
2018-Feb-12 21:30N 33°38' W 119°48'511.2
2018-Feb-12 21:00N 33°38' W 119°55'4 8.2
2018-Feb-12 20:30N 33°38' W 119°60'611.1
2018-Feb-12 20:00N 33°38' W 120°06'811.1
2018-Feb-12 19:15N 33°38' W 120°17'311.4
2018-Feb-12 19:00N 33°38' W 120°20'611.4
2018-Feb-12 18:30N 33°40' W 120°26'511.2
2018-Feb-12 18:00N 33°42' W 120°33'611.1
2018-Feb-12 17:30N 33°44' W 120°39'511.0
2018-Feb-12 17:00N 33°46' W 120°45'510.6
2018-Feb-12 16:30N 33°49' W 120°50'510.8
2018-Feb-12 16:00N 33°52' W 120°55'511.0
2018-Feb-12 15:30N 33°54' W 121°02'611.2
2018-Feb-12 15:00N 33°57' W 121°08'611.2
2018-Feb-12 14:30N 33°59' W 121°14'510.8
2018-Feb-12 14:00N 34°01' W 121°20'510.7
2018-Feb-12 13:30N 34°03' W 121°26'510.7
2018-Feb-12 13:00N 34°05' W 121°32'510.7
2018-Feb-12 12:30N 34°09' W 121°37'611.2
2018-Feb-12 12:00N 34°13' W 121°41'2111.5
2018-Feb-12 10:12N 34°29' W 121°57'14710.9
2018-Feb-11 20:47N 36°39' W 123°21'311.5
2018-Feb-11 20:30N 36°42' W 123°22'611.6
2018-Feb-11 20:00N 36°48' W 123°23'611.4
2018-Feb-11 19:28N 36°54' W 123°25'711.6
2018-Feb-11 18:53N 37°00' W 123°27'1211.1
2018-Feb-11 17:51N 37°12' W 123°28'411.0
2018-Feb-11 17:28N 37°15' W 123°25'511.2
2018-Feb-11 17:00N 37°19' W 123°21'711.0
2018-Feb-11 16:25N 37°24' W 123°15'511.1
2018-Feb-11 16:00N 37°27' W 123°11'511.0
2018-Feb-11 15:30N 37°31' W 123°06'510.2
2018-Feb-11 14:59N 37°35' W 123°02'5 9.6
2018-Feb-11 14:30N 37°37' W 122°57'5 9.7
2018-Feb-11 14:00N 37°40' W 122°52'5 9.5
2018-Feb-11 13:30N 37°43' W 122°47'5 9.5
2018-Feb-11 13:00N 37°45' W 122°42'5 9.7
2018-Feb-11 12:30N 37°47' W 122°36'510.5
2018-Feb-11 12:00N 37°49' W 122°30'5 9.6
2018-Feb-11 11:30N 37°51' W 122°25'611.0
2018-Feb-11 11:00N 37°57' W 122°27'510.8
2018-Feb-11 10:30N 38°01' W 122°23'5 9.7
2018-Feb-11 10:00N 38°03' W 122°18'5 9.3
2018-Feb-11 09:30N 38°03' W 122°12'3 6.4
2018-Feb-11 09:00N 38°02' W 122°08'0 0.4
2018-Feb-11 08:26N 38°02' W 122°08'0 0.0
2018-Feb-11 07:56N 38°02' W 122°08'0 0.0
2018-Feb-11 07:26N 38°02' W 122°08'0 0.0
2018-Feb-11 06:26N 38°02' W 122°08'0 0.0
2018-Feb-11 05:50N 38°02' W 122°08'0 0.0
2018-Feb-11 05:20N 38°02' W 122°08'0 0.0
2018-Feb-11 04:14N 38°02' W 122°08'0 0.0
2018-Feb-11 03:08N 38°02' W 122°08'0 0.0
2018-Feb-11 02:50N 38°02' W 122°08'0 0.0
2018-Feb-11 01:38N 38°02' W 122°08'0 0.0
2018-Feb-11 01:26N 38°02' W 122°08'0 0.0
2018-Feb-11 00:50N 38°02' W 122°08'0 0.0
2018-Feb-10 21:14N 38°02' W 122°08'0 0.0
2018-Feb-10 20:44N 38°02' W 122°08'0 0.0
2018-Feb-10 20:26N 38°02' W 122°08'0 0.0
2018-Feb-10 19:50N 38°02' W 122°08'0 0.0
2018-Feb-10 19:26N 38°02' W 122°08'0 0.0
2018-Feb-10 18:56N 38°02' W 122°08'0 0.0
2018-Feb-10 18:26N 38°02' W 122°08'0 0.0
2018-Feb-10 17:56N 38°02' W 122°08'0 0.0
2018-Feb-10 17:26N 38°02' W 122°08'0 0.0
2018-Feb-10 16:56N 38°02' W 122°08'0 0.0
2018-Feb-10 16:26N 38°02' W 122°08'0 0.0
2018-Feb-10 15:56N 38°02' W 122°08'0 0.0
2018-Feb-10 15:26N 38°02' W 122°08'0 0.0
2018-Feb-10 14:44N 38°02' W 122°08'0 0.0
2018-Feb-10 14:26N 38°02' W 122°08'0 0.0
2018-Feb-10 13:50N 38°02' W 122°08'0 0.0
2018-Feb-10 13:20N 38°02' W 122°08'0 0.0
2018-Feb-10 12:56N 38°02' W 122°08'0 0.0
2018-Feb-10 12:26N 38°02' W 122°08'0 0.0
2018-Feb-10 11:56N 38°02' W 122°08'0 0.0
2018-Feb-10 11:26N 38°02' W 122°08'0 0.0
2018-Feb-10 10:56N 38°02' W 122°08'0 0.0
2018-Feb-10 10:26N 38°02' W 122°08'0 0.0
2018-Feb-10 09:44N 38°02' W 122°08'0 0.0
2018-Feb-10 09:26N 38°02' W 122°08'0 0.0
2018-Feb-10 09:00N 38°02' W 122°08'3 5.4
2018-Feb-10 08:30N 38°03' W 122°11'611.6
2018-Feb-10 08:00N 38°03' W 122°18'611.6
2018-Feb-10 07:30N 38°00' W 122°25'611.1
2018-Feb-10 07:00N 37°55' W 122°27'611.3
2018-Feb-10 06:30N 37°50' W 122°24'3 6.9
2018-Feb-10 06:00N 37°47' W 122°21'0 0.2
2018-Feb-10 05:30N 37°47' W 122°21'0 0.2
2018-Feb-10 05:00N 37°47' W 122°21'0 0.0
2018-Feb-10 04:30N 37°47' W 122°21'0 0.0
2018-Feb-10 04:00N 37°47' W 122°21'0 0.0
2018-Feb-10 03:29N 37°47' W 122°21'0 0.2
2018-Feb-10 03:00N 37°47' W 122°21'0 0.0
2018-Feb-10 02:30N 37°47' W 122°21'0 0.0
2018-Feb-10 02:00N 37°47' W 122°21'0 0.0
2018-Feb-10 01:29N 37°47' W 122°21'0 0.0
2018-Feb-10 00:53N 37°47' W 122°21'0 0.0
2018-Feb-10 00:30N 37°47' W 122°21'0 0.0
2018-Feb-10 00:00N 37°47' W 122°21'0 0.1
2018-Feb-09 23:27N 37°47' W 122°21'0 0.2
2018-Feb-09 23:00N 37°47' W 122°21'0 0.3
2018-Feb-09 22:45N 37°47' W 122°21'5 0.2
2018-Feb-08 15:00N 37°49' W 122°27'  
Track history (hours):
 
Tides and Currents Weather Stations Pressure Air Temp Water Temp Dewpoint Dewpoint Depression Visibility Wind Speed Wind Dir Waves Ship Positions

Gulf Reliance

Owner: Intrepid Ship Management, Jacksonville, FL. More information available from US FCC via Universal Licensing System and Coast Guard Vessel Documentation Center.

Last reported at 2018-Feb-18 10:02 UTC. Time now 2018-Feb-18 20:39 UTC.
Position N 37°26' W 123°13'.

Type: Towing. MMSI: 303668000.

Date/timePositionNaut miles runAvg speedWind from/ knotsBaromVisibWave heightAir tempDewpointWater temp
2018-Feb-18 10:02N 37°26' W 123°13'010.3
2018-Feb-18 10:00N 37°27' W 123°12'510.9
2018-Feb-18 09:30N 37°31' W 123°08'510.8
2018-Feb-18 09:00N 37°35' W 123°03'5 9.7
2018-Feb-18 08:30N 37°37' W 122°58'5 9.8
2018-Feb-18 08:00N 37°40' W 122°53'5 9.8
2018-Feb-18 07:30N 37°43' W 122°48'5 9.9
2018-Feb-18 07:00N 37°45' W 122°42'4 8.6
2018-Feb-18 06:30N 37°46' W 122°37'5 9.3
2018-Feb-18 06:00N 37°48' W 122°32'5 9.2
2018-Feb-18 05:30N 37°50' W 122°26'4 8.8
2018-Feb-18 05:00N 37°48' W 122°22'2 3.0
2018-Feb-18 04:29N 37°46' W 122°21'0 0.4
2018-Feb-18 03:59N 37°46' W 122°21'0 0.2
2018-Feb-18 03:29N 37°46' W 122°21'0 0.1
2018-Feb-18 02:59N 37°46' W 122°21'0 0.0
2018-Feb-18 02:29N 37°46' W 122°21'0 0.0
2018-Feb-18 01:59N 37°46' W 122°21'0 0.0
2018-Feb-18 01:29N 37°46' W 122°21'0 0.0
2018-Feb-18 00:59N 37°46' W 122°21'0 0.0
2018-Feb-18 00:29N 37°46' W 122°21'0 0.0
2018-Feb-17 23:59N 37°46' W 122°21'0 0.0
2018-Feb-17 23:30N 37°46' W 122°21'0 0.0
2018-Feb-17 23:00N 37°46' W 122°21'0 0.2
2018-Feb-17 22:30N 37°46' W 122°21'3 6.8
2018-Feb-17 22:00N 37°49' W 122°23'510.1
2018-Feb-17 21:30N 37°54' W 122°26'5 9.6
2018-Feb-17 21:00N 37°58' W 122°26'5 9.2
2018-Feb-17 20:30N 38°02' W 122°22'4 8.9
2018-Feb-17 20:00N 38°04' W 122°17'4 7.8
2018-Feb-17 19:30N 38°03' W 122°12'4 6.9
2018-Feb-17 19:00N 38°02' W 122°08'0 0.3
2018-Feb-17 18:30N 38°02' W 122°08'0 0.0
2018-Feb-17 17:56N 38°02' W 122°08'0 0.0
2018-Feb-17 17:26N 38°02' W 122°08'0 0.0
2018-Feb-17 16:56N 38°02' W 122°08'0 0.0
2018-Feb-17 16:20N 38°02' W 122°08'0 0.0
2018-Feb-17 15:50N 38°02' W 122°08'0 0.0
2018-Feb-17 15:26N 38°02' W 122°08'0 0.0
2018-Feb-17 14:56N 38°02' W 122°08'0 0.0
2018-Feb-17 14:26N 38°02' W 122°08'0 0.0
2018-Feb-17 13:56N 38°02' W 122°08'0 0.0
2018-Feb-17 13:26N 38°02' W 122°08'0 0.0
2018-Feb-17 12:50N 38°02' W 122°08'0 0.0
2018-Feb-17 12:26N 38°02' W 122°08'0 0.0
2018-Feb-17 11:56N 38°02' W 122°08'0 0.0
2018-Feb-17 11:26N 38°02' W 122°08'0 0.0
2018-Feb-17 10:56N 38°02' W 122°08'0 0.0
2018-Feb-17 10:26N 38°02' W 122°08'0 0.0
2018-Feb-17 09:56N 38°02' W 122°08'0 0.0
2018-Feb-17 09:26N 38°02' W 122°08'0 0.0
2018-Feb-17 08:56N 38°02' W 122°08'0 0.0
2018-Feb-17 08:26N 38°02' W 122°08'0 0.0
2018-Feb-17 07:56N 38°02' W 122°08'0 0.0
2018-Feb-17 07:26N 38°02' W 122°08'0 0.0
2018-Feb-17 06:56N 38°02' W 122°08'0 0.0
2018-Feb-17 06:26N 38°02' W 122°08'0 0.0
2018-Feb-17 05:50N 38°02' W 122°08'0 0.0
2018-Feb-17 05:20N 38°02' W 122°08'0 0.0
2018-Feb-17 04:56N 38°02' W 122°08'0 0.0
2018-Feb-17 04:26N 38°02' W 122°08'0 0.0
2018-Feb-17 03:56N 38°02' W 122°08'0 0.0
2018-Feb-17 03:26N 38°02' W 122°08'0 0.0
2018-Feb-17 02:56N 38°02' W 122°08'0 0.0
2018-Feb-17 02:26N 38°02' W 122°08'0 0.0
2018-Feb-17 01:56N 38°02' W 122°08'0 0.0
2018-Feb-17 01:26N 38°02' W 122°08'0 0.0
2018-Feb-17 00:56N 38°02' W 122°08'0 0.0
2018-Feb-17 00:26N 38°02' W 122°08'0 0.0
2018-Feb-16 23:56N 38°02' W 122°08'0 0.0
2018-Feb-16 23:26N 38°02' W 122°08'0 0.0
2018-Feb-16 22:56N 38°02' W 122°08'0 0.0
2018-Feb-16 21:38N 38°02' W 122°08'0 0.0
2018-Feb-16 20:38N 38°02' W 122°08'0 0.0
2018-Feb-16 20:26N 38°02' W 122°08'0 0.0
2018-Feb-16 19:56N 38°02' W 122°08'0 0.0
2018-Feb-16 19:20N 38°02' W 122°08'0 0.0
2018-Feb-16 18:56N 38°02' W 122°08'0 0.0
2018-Feb-16 18:26N 38°02' W 122°08'0 0.2
2018-Feb-16 18:00N 38°02' W 122°08'2 4.0
2018-Feb-16 17:30N 38°02' W 122°10'5 9.8
2018-Feb-16 17:00N 38°04' W 122°16'510.6
2018-Feb-16 16:30N 38°02' W 122°23'611.2
2018-Feb-16 16:00N 37°57' W 122°27'510.4
2018-Feb-16 15:30N 37°52' W 122°25'4 7.7
2018-Feb-16 15:00N 37°49' W 122°28'510.4
2018-Feb-16 14:30N 37°47' W 122°34'510.4
2018-Feb-16 14:00N 37°45' W 122°40'5 9.7
2018-Feb-16 13:30N 37°42' W 122°45'5 9.5
2018-Feb-16 13:00N 37°39' W 122°50'5 9.6
2018-Feb-16 12:30N 37°36' W 122°55'5 9.2
2018-Feb-16 12:00N 37°34' W 122°59'4 8.7
2018-Feb-16 11:30N 37°30' W 123°03'5 9.6
2018-Feb-16 11:00N 37°25' W 123°02'5 9.7
2018-Feb-16 10:30N 37°21' W 123°02'5 9.9
2018-Feb-16 10:00N 37°16' W 123°02'5 9.8
2018-Feb-16 09:30N 37°11' W 123°02'5 9.7
2018-Feb-16 09:00N 37°06' W 123°02'5 9.5
2018-Feb-16 08:30N 37°01' W 123°02'5 9.5
2018-Feb-16 08:00N 36°56' W 123°02'5 9.6
2018-Feb-16 07:30N 36°52' W 123°02'6 9.7
2018-Feb-16 06:52N 36°45' W 123°02'4 9.7
2018-Feb-16 06:28N 36°41' W 123°02'4 9.5
2018-Feb-16 06:00N 36°37' W 123°02'5 9.5
2018-Feb-16 05:30N 36°32' W 123°01'5 9.4
2018-Feb-16 05:00N 36°28' W 123°01'5 9.1
2018-Feb-16 04:30N 36°23' W 123°01'3 7.0
2018-Feb-16 04:00N 36°20' W 123°01'4 8.0
2018-Feb-16 03:27N 36°15' W 123°01'4 9.7
2018-Feb-16 03:00N 36°11' W 123°01'5 9.8
2018-Feb-16 02:30N 36°06' W 123°00'5 9.8
2018-Feb-16 02:00N 36°01' W 123°00'5 9.9
2018-Feb-16 01:30N 35°56' W 123°00'89 9.5
2018-Feb-15 16:08N 34°38' W 122°07'26 9.5
2018-Feb-15 13:23N 34°18' W 121°46'4 9.6
2018-Feb-15 13:00N 34°15' W 121°44'5 9.6
2018-Feb-15 12:30N 34°12' W 121°40'5 9.6
2018-Feb-15 12:00N 34°08' W 121°36'5 9.4
2018-Feb-15 11:30N 34°05' W 121°32'5 9.4
2018-Feb-15 10:59N 34°03' W 121°27'4 9.3
2018-Feb-15 10:30N 34°01' W 121°22'5 9.4
2018-Feb-15 09:58N 33°59' W 121°16'4 9.3
2018-Feb-15 09:30N 33°58' W 121°11'5 9.6
2018-Feb-15 09:00N 33°56' W 121°06'5 9.8
2018-Feb-15 08:30N 33°54' W 121°01'510.1
2018-Feb-15 07:58N 33°52' W 120°54'510.2
2018-Feb-15 07:30N 33°50' W 120°49'510.3
2018-Feb-15 07:00N 33°48' W 120°43'510.3
2018-Feb-15 06:30N 33°46' W 120°38'610.3
2018-Feb-15 05:58N 33°44' W 120°31'510.1
2018-Feb-15 05:30N 33°42' W 120°26'510.0
2018-Feb-15 05:00N 33°41' W 120°20'510.1
2018-Feb-15 04:30N 33°41' W 120°14'510.3
2018-Feb-15 04:00N 33°41' W 120°08'510.2
2018-Feb-15 03:30N 33°41' W 120°02'510.5
2018-Feb-15 02:59N 33°41' W 119°55'510.3
2018-Feb-15 02:30N 33°41' W 119°49'510.3
2018-Feb-15 01:59N 33°41' W 119°43'510.3
2018-Feb-15 01:30N 33°41' W 119°37'610.3
2018-Feb-15 00:58N 33°41' W 119°30'510.6
2018-Feb-15 00:30N 33°41' W 119°25'610.7
2018-Feb-14 23:56N 33°41' W 119°17'611.1
2018-Feb-14 23:24N 33°41' W 119°10'411.3
2018-Feb-14 23:00N 33°41' W 119°05'611.1
2018-Feb-14 22:30N 33°41' W 118°58'611.0
2018-Feb-14 22:00N 33°40' W 118°51'611.1
2018-Feb-14 21:30N 33°40' W 118°45'611.2
2018-Feb-14 20:59N 33°39' W 118°38'511.3
2018-Feb-14 20:30N 33°38' W 118°31'611.3
2018-Feb-14 19:59N 33°38' W 118°24'511.3
2018-Feb-14 19:30N 33°38' W 118°18'5 9.4
2018-Feb-14 19:00N 33°42' W 118°15'3 5.5
2018-Feb-14 18:30N 33°45' W 118°16'0 0.8
2018-Feb-14 17:59N 33°45' W 118°16'0 0.0
2018-Feb-14 17:29N 33°45' W 118°16'0 0.0
2018-Feb-14 16:56N 33°45' W 118°16'0 0.0
2018-Feb-14 16:26N 33°45' W 118°16'0 0.0
2018-Feb-14 15:59N 33°45' W 118°16'0 0.0
2018-Feb-14 15:29N 33°45' W 118°16'0 0.0
2018-Feb-14 14:59N 33°45' W 118°16'0 0.0
2018-Feb-14 14:29N 33°45' W 118°16'0 0.0
2018-Feb-14 13:59N 33°45' W 118°16'0 0.0
2018-Feb-14 13:29N 33°45' W 118°16'0 0.0
2018-Feb-14 12:59N 33°45' W 118°16'0 0.0
2018-Feb-14 12:29N 33°45' W 118°16'0 0.0
2018-Feb-14 11:59N 33°45' W 118°16'0 0.0
2018-Feb-14 11:29N 33°45' W 118°16'0 0.0
2018-Feb-14 10:59N 33°45' W 118°16'0 0.0
2018-Feb-14 10:29N 33°45' W 118°16'0 0.0
2018-Feb-14 09:59N 33°45' W 118°16'0 0.0
2018-Feb-14 09:29N 33°45' W 118°16'0 0.0
2018-Feb-14 08:58N 33°45' W 118°16'0 0.0
2018-Feb-14 08:28N 33°45' W 118°16'0 0.0
2018-Feb-14 07:59N 33°45' W 118°16'0 0.0
2018-Feb-14 07:26N 33°45' W 118°16'0 0.0
2018-Feb-14 06:59N 33°45' W 118°16'0 0.0
2018-Feb-14 06:28N 33°45' W 118°16'0 0.0
2018-Feb-14 05:59N 33°45' W 118°16'0 0.0
2018-Feb-14 05:29N 33°45' W 118°16'0 0.0
2018-Feb-14 04:59N 33°45' W 118°16'0 0.0
2018-Feb-14 04:29N 33°45' W 118°16'0 0.0
2018-Feb-14 03:59N 33°45' W 118°16'0 0.0
2018-Feb-14 03:28N 33°45' W 118°16'0 0.0
2018-Feb-14 02:56N 33°45' W 118°16'0 0.0
2018-Feb-14 02:29N 33°45' W 118°16'0 0.0
2018-Feb-14 01:59N 33°45' W 118°16'0 0.0
2018-Feb-14 01:29N 33°45' W 118°16'0 0.0
2018-Feb-14 00:59N 33°45' W 118°16'0 0.0
2018-Feb-14 00:29N 33°45' W 118°16'0 0.0
2018-Feb-13 23:55N 33°45' W 118°16'0 0.0
2018-Feb-13 23:29N 33°45' W 118°16'0 0.0
2018-Feb-13 22:59N 33°45' W 118°16'0 0.0
2018-Feb-13 22:29N 33°45' W 118°16'0 0.0
2018-Feb-13 21:59N 33°45' W 118°16'0 0.0
2018-Feb-13 21:29N 33°45' W 118°16'0 0.0
2018-Feb-13 20:58N 33°45' W 118°16'0 0.0
2018-Feb-13 20:29N 33°45' W 118°16'0 0.0
2018-Feb-13 19:59N 33°45' W 118°16'0 0.0
2018-Feb-13 19:28N 33°45' W 118°16'0 0.0
2018-Feb-13 18:58N 33°45' W 118°16'0 0.0
2018-Feb-13 18:28N 33°45' W 118°16'0 0.0
2018-Feb-13 17:59N 33°45' W 118°16'0 0.0
2018-Feb-13 17:29N 33°45' W 118°16'0 0.0
2018-Feb-13 16:58N 33°45' W 118°16'0 0.0
2018-Feb-13 16:28N 33°45' W 118°16'0 0.0
2018-Feb-13 15:58N 33°45' W 118°16'0 0.0
2018-Feb-13 15:28N 33°45' W 118°16'0 0.0
2018-Feb-13 14:59N 33°45' W 118°16'0 0.0
2018-Feb-13 14:29N 33°45' W 118°16'0 0.0
2018-Feb-13 13:58N 33°45' W 118°16'0 0.0
2018-Feb-13 13:29N 33°45' W 118°16'0 0.0
2018-Feb-13 12:58N 33°45' W 118°16'0 0.0
2018-Feb-13 12:28N 33°45' W 118°16'0 0.2
2018-Feb-13 12:00N 33°45' W 118°16'2 4.5
2018-Feb-13 11:30N 33°43' W 118°16'3 5.3
2018-Feb-13 10:55N 33°41' W 118°13'0 0.1
2018-Feb-13 10:28N 33°41' W 118°13'0 0.0
2018-Feb-13 09:58N 33°41' W 118°13'0 0.0
2018-Feb-13 09:25N 33°41' W 118°13'0 0.0
2018-Feb-13 07:16N 33°41' W 118°13'0 0.1
2018-Feb-13 06:55N 33°41' W 118°13'0 0.0
2018-Feb-13 06:25N 33°41' W 118°13'0 0.1
2018-Feb-13 05:58N 33°41' W 118°13'0 0.0
2018-Feb-13 05:28N 33°41' W 118°13'0 0.3
2018-Feb-13 04:59N 33°41' W 118°13'16 8.9
2018-Feb-13 03:09N 33°36' W 118°31'211.6
2018-Feb-13 03:00N 33°36' W 118°33'611.5
2018-Feb-13 02:30N 33°36' W 118°40'611.5
2018-Feb-13 02:00N 33°36' W 118°47'611.5
2018-Feb-13 01:30N 33°36' W 118°54'611.5
2018-Feb-13 01:00N 33°37' W 119°01'711.2
2018-Feb-13 00:25N 33°37' W 119°09'511.4
2018-Feb-13 00:00N 33°37' W 119°14'511.0
2018-Feb-12 23:30N 33°38' W 119°21'611.3
2018-Feb-12 22:59N 33°38' W 119°28'611.2
2018-Feb-12 22:30N 33°38' W 119°35'611.3
2018-Feb-12 22:00N 33°38' W 119°41'611.4
2018-Feb-12 21:30N 33°38' W 119°48'511.2
2018-Feb-12 21:00N 33°38' W 119°55'4 8.2
2018-Feb-12 20:30N 33°38' W 119°60'611.1
2018-Feb-12 20:00N 33°38' W 120°06'811.1
2018-Feb-12 19:15N 33°38' W 120°17'311.4
2018-Feb-12 19:00N 33°38' W 120°20'611.4
2018-Feb-12 18:30N 33°40' W 120°26'511.2
2018-Feb-12 18:00N 33°42' W 120°33'611.1
2018-Feb-12 17:30N 33°44' W 120°39'511.0
2018-Feb-12 17:00N 33°46' W 120°45'510.6
2018-Feb-12 16:30N 33°49' W 120°50'510.8
2018-Feb-12 16:00N 33°52' W 120°55'511.0
2018-Feb-12 15:30N 33°54' W 121°02'611.2
2018-Feb-12 15:00N 33°57' W 121°08'611.2
2018-Feb-12 14:30N 33°59' W 121°14'510.8
2018-Feb-12 14:00N 34°01' W 121°20'510.7
2018-Feb-12 13:30N 34°03' W 121°26'510.7
2018-Feb-12 13:00N 34°05' W 121°32'510.7
2018-Feb-12 12:30N 34°09' W 121°37'611.2
2018-Feb-12 12:00N 34°13' W 121°41'2111.5
2018-Feb-12 10:12N 34°29' W 121°57'14710.9
2018-Feb-11 20:47N 36°39' W 123°21'311.5
2018-Feb-11 20:30N 36°42' W 123°22'611.6
2018-Feb-11 20:00N 36°48' W 123°23'611.4
2018-Feb-11 19:28N 36°54' W 123°25'711.6
2018-Feb-11 18:53N 37°00' W 123°27'1211.1
2018-Feb-11 17:51N 37°12' W 123°28'411.0
2018-Feb-11 17:28N 37°15' W 123°25'511.2
2018-Feb-11 17:00N 37°19' W 123°21'711.0
2018-Feb-11 16:25N 37°24' W 123°15'511.1
2018-Feb-11 16:00N 37°27' W 123°11'511.0
2018-Feb-11 15:30N 37°31' W 123°06'510.2
2018-Feb-11 14:59N 37°35' W 123°02'5 9.6
2018-Feb-11 14:30N 37°37' W 122°57'5 9.7
2018-Feb-11 14:00N 37°40' W 122°52'5 9.5
2018-Feb-11 13:30N 37°43' W 122°47'5 9.5
2018-Feb-11 13:00N 37°45' W 122°42'5 9.7
2018-Feb-11 12:30N 37°47' W 122°36'510.5
2018-Feb-11 12:00N 37°49' W 122°30'5 9.6
2018-Feb-11 11:30N 37°51' W 122°25'611.0
2018-Feb-11 11:00N 37°57' W 122°27'510.8
2018-Feb-11 10:30N 38°01' W 122°23'5 9.7
2018-Feb-11 10:00N 38°03' W 122°18'5 9.3
2018-Feb-11 09:30N 38°03' W 122°12'3 6.4
2018-Feb-11 09:00N 38°02' W 122°08'0 0.4
2018-Feb-11 08:26N 38°02' W 122°08'0 0.0
2018-Feb-11 07:56N 38°02' W 122°08'0 0.0
2018-Feb-11 07:26N 38°02' W 122°08'0 0.0
2018-Feb-11 06:26N 38°02' W 122°08'0 0.0
2018-Feb-11 05:50N 38°02' W 122°08'0 0.0
2018-Feb-11 05:20N 38°02' W 122°08'0 0.0
2018-Feb-11 04:14N 38°02' W 122°08'0 0.0
2018-Feb-11 03:08N 38°02' W 122°08'0 0.0
2018-Feb-11 02:50N 38°02' W 122°08'0 0.0
2018-Feb-11 01:38N 38°02' W 122°08'0 0.0
2018-Feb-11 01:26N 38°02' W 122°08'0 0.0
2018-Feb-11 00:50N 38°02' W 122°08'0 0.0
2018-Feb-10 21:14N 38°02' W 122°08'0 0.0
2018-Feb-10 20:44N 38°02' W 122°08'0 0.0
2018-Feb-10 20:26N 38°02' W 122°08'0 0.0
2018-Feb-10 19:50N 38°02' W 122°08'0 0.0
2018-Feb-10 19:26N 38°02' W 122°08'0 0.0
2018-Feb-10 18:56N 38°02' W 122°08'0 0.0
2018-Feb-10 18:26N 38°02' W 122°08'0 0.0
2018-Feb-10 17:56N 38°02' W 122°08'0 0.0
2018-Feb-10 17:26N 38°02' W 122°08'0 0.0
2018-Feb-10 16:56N 38°02' W 122°08'0 0.0
2018-Feb-10 16:26N 38°02' W 122°08'0 0.0
2018-Feb-10 15:56N 38°02' W 122°08'0 0.0
2018-Feb-10 15:26N 38°02' W 122°08'0 0.0
2018-Feb-10 14:44N 38°02' W 122°08'0 0.0
2018-Feb-10 14:26N 38°02' W 122°08'0 0.0
2018-Feb-10 13:50N 38°02' W 122°08'0 0.0
2018-Feb-10 13:20N 38°02' W 122°08'0 0.0
2018-Feb-10 12:56N 38°02' W 122°08'0 0.0
2018-Feb-10 12:26N 38°02' W 122°08'0 0.0
2018-Feb-10 11:56N 38°02' W 122°08'0 0.0
2018-Feb-10 11:26N 38°02' W 122°08'0 0.0
2018-Feb-10 10:56N 38°02' W 122°08'0 0.0
2018-Feb-10 10:26N 38°02' W 122°08'0 0.0
2018-Feb-10 09:44N 38°02' W 122°08'0 0.0
2018-Feb-10 09:26N 38°02' W 122°08'0 0.0
2018-Feb-10 09:00N 38°02' W 122°08'3 5.4
2018-Feb-10 08:30N 38°03' W 122°11'611.6
2018-Feb-10 08:00N 38°03' W 122°18'611.6
2018-Feb-10 07:30N 38°00' W 122°25'611.1
2018-Feb-10 07:00N 37°55' W 122°27'611.3
2018-Feb-10 06:30N 37°50' W 122°24'3 6.9
2018-Feb-10 06:00N 37°47' W 122°21'0 0.2
2018-Feb-10 05:30N 37°47' W 122°21'0 0.2
2018-Feb-10 05:00N 37°47' W 122°21'0 0.0
2018-Feb-10 04:30N 37°47' W 122°21'0 0.0
2018-Feb-10 04:00N 37°47' W 122°21'0 0.0
2018-Feb-10 03:29N 37°47' W 122°21'0 0.2
2018-Feb-10 03:00N 37°47' W 122°21'0 0.0
2018-Feb-10 02:30N 37°47' W 122°21'0 0.0
2018-Feb-10 02:00N 37°47' W 122°21'0 0.0
2018-Feb-10 01:29N 37°47' W 122°21'0 0.0
2018-Feb-10 00:53N 37°47' W 122°21'0 0.0
2018-Feb-10 00:30N 37°47' W 122°21'0 0.0
2018-Feb-10 00:00N 37°47' W 122°21'0 0.1
2018-Feb-09 23:27N 37°47' W 122°21'0 0.2
2018-Feb-09 23:00N 37°47' W 122°21'0 0.3
2018-Feb-09 22:45N 37°47' W 122°21'5 0.2
2018-Feb-08 15:00N 37°49' W 122°27'  

Dump ship's entire track history